createdAt,value
2022-09-10T00:01:39.288Z,13.20
2022-09-10T00:04:16.249Z,13.20
2022-09-10T00:06:44.259Z,13.20
2022-09-10T00:09:13.359Z,13.20
2022-09-10T00:11:41.823Z,13.20
2022-09-10T00:14:15.492Z,13.20
2022-09-10T00:16:45.458Z,13.20
2022-09-10T00:19:13.279Z,13.20
2022-09-10T00:21:40.564Z,13.10
2022-09-10T00:24:07.727Z,13.10
2022-09-10T00:26:40.455Z,13.10
2022-09-10T00:29:13.047Z,13.10
2022-09-10T00:31:40.226Z,13.10
2022-09-10T00:34:09.227Z,13.10
2022-09-10T00:36:40.470Z,13.10
2022-09-10T00:39:17.926Z,13.10
2022-09-10T00:41:48.153Z,13.10
2022-09-10T00:44:37.511Z,13.00
2022-09-10T00:47:08.191Z,13.00
2022-09-10T00:49:43.528Z,13.00
2022-09-10T00:52:12.394Z,13.00
2022-09-10T00:54:42.356Z,13.00
2022-09-10T00:57:16.883Z,13.00
2022-09-10T00:59:49.328Z,13.00
2022-09-10T01:02:16.690Z,13.00
2022-09-10T01:04:44.563Z,13.00
2022-09-10T01:07:12.650Z,13.10
2022-09-10T01:09:40.602Z,13.10
2022-09-10T01:12:25.954Z,13.10
2022-09-10T01:15:13.297Z,13.10
2022-09-10T01:18:03.593Z,13.00
2022-09-10T01:21:07.017Z,13.10
2022-09-10T01:23:52.166Z,13.10
2022-09-10T01:26:59.076Z,13.10
2022-09-10T01:29:59.785Z,13.10
2022-09-10T01:33:05.428Z,13.10
2022-09-10T01:35:43.255Z,13.10
2022-09-10T01:38:22.104Z,13.10
2022-09-10T01:40:50.674Z,13.20
2022-09-10T01:43:18.379Z,13.10
2022-09-10T01:46:05.072Z,13.10
2022-09-10T01:48:54.771Z,13.20
2022-09-10T01:52:04.034Z,13.20
2022-09-10T01:54:37.197Z,13.20
2022-09-10T01:57:04.192Z,13.20
2022-09-10T02:00:00.977Z,13.30
2022-09-10T02:02:37.219Z,13.30
2022-09-10T02:05:06.515Z,13.20
2022-09-10T02:07:36.398Z,13.20
2022-09-10T02:10:08.318Z,13.20
2022-09-10T02:12:36.435Z,13.30
2022-09-10T02:15:04.940Z,13.20
2022-09-10T02:17:36.787Z,13.30
2022-09-10T02:20:13.692Z,13.20
2022-09-10T02:22:48.228Z,13.20
2022-09-10T02:25:15.462Z,13.30
2022-09-10T02:27:44.008Z,13.30
2022-09-10T02:30:11.888Z,13.30
2022-09-10T02:32:38.890Z,13.30
2022-09-10T02:35:06.678Z,13.30
2022-09-10T02:37:33.787Z,13.30
2022-09-10T02:40:00.970Z,13.20
2022-09-10T02:42:28.291Z,13.30
2022-09-10T02:44:55.935Z,13.30
2022-09-10T02:47:23.150Z,13.30
2022-09-10T02:49:50.202Z,13.30
2022-09-10T02:52:17.478Z,13.40
2022-09-10T02:54:44.616Z,13.30
2022-09-10T02:57:12.332Z,13.40
2022-09-10T02:59:39.391Z,13.30
2022-09-10T03:02:06.457Z,13.30
2022-09-10T03:04:33.482Z,13.30
2022-09-10T03:07:00.547Z,13.30
2022-09-10T03:09:29.022Z,13.20
2022-09-10T03:11:56.175Z,13.20
2022-09-10T03:14:24.810Z,13.20
2022-09-10T03:16:52.758Z,13.20
2022-09-10T03:19:21.071Z,13.30
2022-09-10T03:21:48.122Z,13.30
2022-09-10T03:24:15.571Z,13.30
2022-09-10T03:26:44.539Z,13.30
2022-09-10T03:29:12.231Z,13.30
2022-09-10T03:31:40.073Z,13.30
2022-09-10T03:34:07.410Z,13.30
2022-09-10T03:36:34.445Z,13.30
2022-09-10T03:39:01.481Z,13.30
2022-09-10T03:41:29.316Z,13.30
2022-09-10T03:43:57.551Z,13.30
2022-09-10T03:46:25.428Z,13.40
2022-09-10T03:48:55.389Z,13.50
2022-09-10T03:51:23.455Z,13.40
2022-09-10T03:53:50.499Z,13.50
2022-09-10T03:56:20.131Z,13.40
2022-09-10T03:58:49.311Z,13.40
2022-09-10T04:01:20.265Z,13.40
2022-09-10T04:03:47.982Z,13.40
2022-09-10T04:06:16.477Z,13.50
2022-09-10T04:08:50.732Z,13.50
2022-09-10T04:11:17.758Z,13.50
2022-09-10T04:13:49.148Z,13.50
2022-09-10T04:16:17.078Z,13.40
2022-09-10T04:18:46.171Z,13.50
2022-09-10T04:21:13.219Z,13.50
2022-09-10T04:23:41.320Z,13.50
2022-09-10T04:26:14.769Z,13.50
2022-09-10T04:28:42.427Z,13.50
2022-09-10T04:31:10.215Z,13.50
2022-09-10T04:33:38.004Z,13.40
2022-09-10T04:36:05.568Z,13.40
2022-09-10T04:38:32.971Z,13.40
2022-09-10T04:41:01.546Z,13.40
2022-09-10T04:43:32.199Z,13.40
2022-09-10T04:45:59.274Z,13.40
2022-09-10T04:48:26.583Z,13.40
2022-09-10T04:51:14.824Z,13.40
2022-09-10T04:53:42.027Z,13.30
2022-09-10T04:56:09.152Z,13.30
2022-09-10T04:58:38.815Z,13.30
2022-09-10T05:01:07.428Z,13.30
2022-09-10T05:03:34.773Z,13.30
2022-09-10T05:06:05.499Z,13.30
2022-09-10T05:08:32.585Z,13.30
2022-09-10T05:11:02.773Z,13.30
2022-09-10T05:13:31.179Z,13.40
2022-09-10T05:16:01.735Z,13.30
2022-09-10T05:18:28.763Z,13.40
2022-09-10T05:20:55.794Z,13.40
2022-09-10T05:23:23.112Z,13.40
2022-09-10T05:25:50.090Z,13.40
2022-09-10T05:28:17.247Z,13.40
2022-09-10T05:30:51.537Z,13.40
2022-09-10T05:33:19.023Z,13.40
2022-09-10T05:35:51.876Z,13.40
2022-09-10T05:38:19.678Z,13.40
2022-09-10T05:40:47.083Z,13.40
2022-09-10T05:43:14.143Z,13.40
2022-09-10T05:45:41.849Z,13.40
2022-09-10T05:48:09.099Z,13.40
2022-09-10T05:50:36.226Z,13.40
2022-09-10T05:53:03.220Z,13.40
2022-09-10T05:55:31.351Z,13.40
2022-09-10T05:57:58.686Z,13.40
2022-09-10T06:00:26.304Z,13.40
2022-09-10T06:02:53.406Z,13.40
2022-09-10T06:05:23.363Z,13.40
2022-09-10T06:07:51.169Z,13.50
2022-09-10T06:10:18.530Z,13.50
2022-09-10T06:12:47.549Z,13.50
2022-09-10T06:15:15.094Z,13.40
2022-09-10T06:17:42.498Z,13.40
2022-09-10T06:20:13.150Z,13.40
2022-09-10T06:22:40.647Z,13.40
2022-09-10T06:25:08.230Z,13.40
2022-09-10T06:27:35.327Z,13.40
2022-09-10T06:30:02.352Z,13.40
2022-09-10T06:32:29.353Z,13.40
2022-09-10T06:34:56.441Z,13.40
2022-09-10T06:37:24.299Z,13.40
2022-09-10T06:39:51.327Z,13.30
2022-09-10T06:42:18.378Z,13.30
2022-09-10T06:44:45.566Z,13.30
2022-09-10T06:50:01.659Z,13.30
2022-09-10T06:52:31.546Z,13.40
2022-09-10T06:54:59.300Z,13.40
2022-09-10T06:57:26.676Z,13.40
2022-09-10T06:59:53.729Z,13.40
2022-09-10T07:02:20.734Z,13.40
2022-09-10T07:04:47.804Z,13.40
2022-09-10T07:07:15.132Z,13.40
2022-09-10T07:09:43.216Z,13.50
2022-09-10T07:12:10.281Z,13.50
2022-09-10T07:14:37.323Z,13.50
2022-09-10T07:17:06.415Z,13.60
2022-09-10T07:19:36.299Z,13.60
2022-09-10T07:22:03.435Z,13.70
2022-09-10T07:24:30.487Z,13.60
2022-09-10T07:26:57.806Z,13.70
2022-09-10T07:29:24.797Z,13.60
2022-09-10T07:31:51.840Z,13.70
2022-09-10T07:34:20.357Z,13.70
2022-09-10T07:36:47.378Z,13.70
2022-09-10T07:39:14.600Z,13.70
2022-09-10T07:41:41.965Z,13.70
2022-09-10T07:44:08.982Z,13.70
2022-09-10T07:46:37.996Z,13.80
2022-09-10T07:49:05.094Z,13.80
2022-09-10T07:51:34.131Z,13.70
2022-09-10T07:54:01.225Z,13.80
2022-09-10T07:56:32.533Z,13.90
2022-09-10T07:58:59.668Z,13.90
2022-09-10T08:01:26.841Z,13.90
2022-09-10T08:03:57.881Z,13.90
2022-09-10T08:06:25.172Z,13.90
2022-09-10T08:08:52.946Z,14.00
2022-09-10T08:11:21.811Z,13.90
2022-09-10T08:13:52.451Z,13.90
2022-09-10T08:16:23.597Z,14.00
2022-09-10T08:18:55.622Z,14.10
2022-09-10T08:21:23.056Z,14.20
2022-09-10T08:23:54.166Z,14.30
2022-09-10T08:26:24.437Z,14.30
2022-09-10T08:28:53.196Z,14.50
2022-09-10T08:31:20.345Z,14.50
2022-09-10T08:33:52.882Z,14.60
2022-09-10T08:36:24.827Z,14.60
2022-09-10T08:38:57.027Z,14.60
2022-09-10T08:41:47.434Z,14.70
2022-09-10T08:44:31.483Z,14.70
2022-09-10T08:47:10.324Z,14.70
2022-09-10T08:49:46.021Z,14.60
2022-09-10T08:52:50.947Z,14.60
2022-09-10T08:55:17.924Z,14.70
2022-09-10T08:57:50.362Z,14.80
2022-09-10T09:00:35.108Z,14.90
2022-09-10T09:03:21.563Z,15.00
2022-09-10T09:05:55.671Z,15.20
2022-09-10T09:08:30.622Z,15.30
2022-09-10T09:11:20.216Z,15.30
2022-09-10T09:13:59.959Z,15.40
2022-09-10T09:17:07.094Z,15.40
2022-09-10T09:19:45.693Z,15.60
2022-09-10T09:22:18.992Z,15.70
2022-09-10T09:25:00.784Z,15.80
2022-09-10T09:27:34.196Z,15.90
2022-09-10T09:30:08.226Z,15.80
2022-09-10T09:32:41.106Z,15.80
2022-09-10T09:35:30.251Z,15.80
2022-09-10T09:38:08.303Z,15.80
2022-09-10T09:40:49.917Z,15.90
2022-09-10T09:43:32.164Z,15.90
2022-09-10T09:46:00.304Z,15.90
2022-09-10T09:48:39.574Z,15.90
2022-09-10T09:51:13.231Z,15.90
2022-09-10T09:53:42.343Z,15.80
2022-09-10T09:56:27.873Z,15.90
2022-09-10T09:58:54.970Z,16.00
2022-09-10T10:01:27.147Z,16.10
2022-09-10T10:04:01.704Z,16.00
2022-09-10T10:06:34.694Z,16.00
2022-09-10T10:09:03.567Z,16.10
2022-09-10T10:12:00.174Z,16.30
2022-09-10T10:14:47.466Z,16.50
2022-09-10T10:17:32.726Z,16.70
2022-09-10T10:20:15.447Z,16.60
2022-09-10T10:22:45.558Z,16.40
2022-09-10T10:25:34.346Z,16.20
2022-09-10T10:28:01.778Z,16.00
2022-09-10T10:30:31.651Z,15.90
2022-09-10T10:33:00.350Z,15.80
2022-09-10T10:35:51.658Z,15.70
2022-09-10T10:38:34.412Z,15.60
2022-09-10T10:42:13.816Z,15.50
2022-09-10T10:45:21.171Z,15.60
2022-09-10T10:48:01.006Z,15.50
2022-09-10T10:50:44.558Z,15.60
2022-09-10T10:53:43.261Z,15.50
2022-09-10T10:56:42.052Z,15.30
2022-09-10T10:59:26.828Z,15.20
2022-09-10T11:02:32.782Z,15.20
2022-09-10T11:05:16.783Z,15.10
2022-09-10T11:07:44.744Z,15.10
2022-09-10T11:10:42.844Z,15.00
2022-09-10T11:13:25.757Z,15.00
2022-09-10T11:16:15.191Z,14.80
2022-09-10T11:19:13.890Z,14.80
2022-09-10T11:22:04.559Z,14.70
2022-09-10T11:24:47.631Z,14.80
2022-09-10T11:27:26.259Z,14.80
2022-09-10T11:30:04.205Z,14.90
2022-09-10T11:33:17.711Z,14.90
2022-09-10T11:35:51.526Z,15.00
2022-09-10T11:38:44.450Z,15.00
2022-09-10T11:41:24.776Z,15.00
2022-09-10T11:44:22.168Z,15.10
2022-09-10T11:47:07.119Z,15.10
2022-09-10T11:50:07.640Z,15.00
2022-09-10T11:52:35.433Z,15.10
2022-09-10T11:55:08.460Z,15.00
2022-09-10T11:58:27.273Z,15.00
2022-09-10T12:01:17.949Z,15.00
2022-09-10T12:04:17.469Z,15.00
2022-09-10T12:07:19.107Z,14.90
2022-09-10T12:10:05.867Z,14.90
2022-09-10T12:12:45.105Z,15.00
2022-09-10T12:15:25.943Z,15.00
2022-09-10T12:18:12.452Z,15.00
2022-09-10T12:20:51.572Z,15.00
2022-09-10T12:23:28.879Z,15.10
2022-09-10T12:26:18.045Z,15.10
2022-09-10T12:28:53.952Z,15.10
2022-09-10T12:31:22.533Z,15.10
2022-09-10T12:33:51.226Z,15.10
2022-09-10T12:36:27.081Z,15.20
2022-09-10T12:39:29.119Z,15.20
2022-09-10T12:42:00.727Z,15.10
2022-09-10T12:44:30.216Z,15.10
2022-09-10T12:47:18.205Z,15.20
2022-09-10T12:49:58.707Z,15.10
2022-09-10T12:52:53.767Z,15.20
2022-09-10T12:55:48.503Z,15.10
2022-09-10T12:58:30.498Z,15.10
2022-09-10T13:00:58.206Z,15.00
2022-09-10T13:03:28.900Z,15.10
2022-09-10T13:06:00.842Z,15.30
2022-09-10T13:08:38.968Z,15.70
2022-09-10T13:11:21.329Z,16.20
2022-09-10T13:14:04.990Z,16.50
2022-09-10T13:16:32.010Z,16.30
2022-09-10T13:19:14.130Z,16.20
2022-09-10T13:21:41.165Z,16.50
2022-09-10T13:24:37.298Z,16.50
2022-09-10T13:27:13.206Z,16.50
2022-09-10T13:29:47.137Z,16.50
2022-09-10T13:32:34.527Z,16.40
2022-09-10T13:35:05.657Z,16.40
2022-09-10T13:38:21.211Z,16.20
2022-09-10T13:40:59.885Z,16.50
2022-09-10T13:44:00.950Z,16.70
2022-09-10T13:46:42.902Z,16.80
2022-09-10T13:49:47.478Z,16.50
2022-09-10T13:52:18.006Z,16.50
2022-09-10T13:54:55.319Z,16.40
2022-09-10T13:57:29.506Z,16.40
2022-09-10T14:00:19.305Z,16.50
2022-09-10T14:02:54.224Z,16.50
2022-09-10T14:05:47.018Z,16.60
2022-09-10T14:08:30.590Z,16.70
2022-09-10T14:11:13.598Z,16.60
2022-09-10T14:13:58.882Z,16.50
2022-09-10T14:16:42.103Z,16.40
2022-09-10T14:19:26.019Z,16.50
2022-09-10T14:21:54.702Z,16.60
2022-09-10T14:24:39.812Z,16.50
2022-09-10T14:27:31.097Z,16.50
2022-09-10T14:30:25.905Z,16.50
2022-09-10T14:32:53.573Z,16.50
2022-09-10T14:35:49.454Z,16.50
2022-09-10T14:38:38.236Z,16.40
2022-09-10T14:41:21.855Z,16.40
2022-09-10T14:43:50.182Z,16.40
2022-09-10T14:46:50.076Z,16.40
2022-09-10T14:49:49.331Z,16.40
2022-09-10T14:52:18.197Z,16.40
2022-09-10T14:54:46.220Z,16.30
2022-09-10T14:57:15.956Z,16.20
2022-09-10T14:59:50.264Z,16.10
2022-09-10T15:02:27.271Z,16.10
2022-09-10T15:04:54.994Z,16.10
2022-09-10T15:07:23.843Z,16.10
2022-09-10T15:09:53.629Z,16.20
2022-09-10T15:12:30.751Z,16.50
2022-09-10T15:14:58.723Z,16.90
2022-09-10T15:17:28.322Z,17.20
2022-09-10T15:19:56.087Z,17.40
2022-09-10T15:22:25.513Z,17.40
2022-09-10T15:25:11.433Z,17.20
2022-09-10T15:27:39.123Z,17.10
2022-09-10T15:30:07.308Z,17.20
2022-09-10T15:32:34.357Z,17.30
2022-09-10T15:35:01.674Z,17.20
2022-09-10T15:37:28.668Z,17.10
2022-09-10T15:39:58.635Z,17.10
2022-09-10T15:42:25.905Z,17.00
2022-09-10T15:44:52.887Z,17.00
2022-09-10T15:47:19.905Z,17.00
2022-09-10T15:49:47.296Z,16.90
2022-09-10T15:52:14.407Z,16.80
2022-09-10T15:54:43.182Z,16.80
2022-09-10T15:57:10.371Z,16.90
2022-09-10T15:59:37.766Z,16.70
2022-09-10T16:02:06.390Z,16.60
2022-09-10T16:04:36.661Z,16.50
2022-09-10T16:07:05.400Z,16.60
2022-09-10T16:09:32.887Z,16.60
2022-09-10T16:12:00.011Z,16.50
2022-09-10T16:14:27.120Z,16.60
2022-09-10T16:16:54.175Z,16.60
2022-09-10T16:19:21.255Z,16.70
2022-09-10T16:21:48.500Z,16.80
2022-09-10T16:24:15.782Z,16.80
2022-09-10T16:26:48.052Z,16.70
2022-09-10T16:29:22.240Z,16.60
2022-09-10T16:31:50.343Z,16.50
2022-09-10T16:34:20.262Z,16.40
2022-09-10T16:36:49.003Z,16.40
2022-09-10T16:39:17.988Z,16.40
2022-09-10T16:41:48.121Z,16.30
2022-09-10T16:44:17.816Z,16.40
2022-09-10T16:46:47.203Z,16.40
2022-09-10T16:49:18.418Z,16.30
2022-09-10T16:51:49.214Z,16.30
2022-09-10T16:54:20.085Z,16.20
2022-09-10T16:56:48.835Z,16.20
2022-09-10T16:59:24.050Z,16.20
2022-09-10T17:01:52.686Z,16.20
2022-09-10T17:04:28.151Z,16.20
2022-09-10T17:06:57.490Z,16.20
2022-09-10T17:09:25.182Z,16.20
2022-09-10T17:11:53.712Z,16.10
2022-09-10T17:14:20.829Z,16.10
2022-09-10T17:16:48.800Z,16.20
2022-09-10T17:19:26.408Z,16.20
2022-09-10T17:21:55.767Z,16.10
2022-09-10T17:24:25.993Z,16.10
2022-09-10T17:26:55.408Z,16.00
2022-09-10T17:29:25.131Z,15.90
2022-09-10T17:31:52.704Z,15.80
2022-09-10T17:34:22.164Z,15.80
2022-09-10T17:36:49.650Z,15.80
2022-09-10T17:39:17.739Z,15.70
2022-09-10T17:41:45.378Z,15.70
2022-09-10T17:44:13.569Z,15.70
2022-09-10T17:46:42.831Z,15.60
2022-09-10T17:49:13.524Z,15.60
2022-09-10T17:51:40.765Z,15.50
2022-09-10T17:54:08.477Z,15.50
2022-09-10T17:56:37.992Z,15.50
2022-09-10T17:59:06.439Z,15.40
2022-09-10T18:01:38.831Z,15.40
2022-09-10T18:04:08.216Z,15.30
2022-09-10T18:06:36.818Z,15.30
2022-09-10T18:09:07.324Z,15.30
2022-09-10T18:11:39.534Z,15.20
2022-09-10T18:14:07.375Z,15.20
2022-09-10T18:16:36.564Z,15.20
2022-09-10T18:19:12.887Z,15.10
2022-09-10T18:21:42.475Z,15.10
2022-09-10T18:24:19.186Z,15.10
2022-09-10T18:26:49.093Z,15.10
2022-09-10T18:29:30.006Z,15.10
2022-09-10T18:32:00.711Z,15.10
2022-09-10T18:34:30.351Z,15.10
2022-09-10T18:37:01.591Z,15.10
2022-09-10T18:39:31.902Z,15.10
2022-09-10T18:42:01.138Z,15.00
2022-09-10T18:44:33.414Z,15.00
2022-09-10T18:47:00.832Z,14.90
2022-09-10T18:49:27.975Z,14.90
2022-09-10T18:51:57.420Z,14.80
2022-09-10T18:54:28.738Z,14.80
2022-09-10T18:56:57.646Z,14.80
2022-09-10T18:59:25.970Z,14.80
2022-09-10T19:01:55.895Z,14.80
2022-09-10T19:04:29.519Z,14.80
2022-09-10T19:06:57.849Z,14.80
2022-09-10T19:09:29.123Z,14.80
2022-09-10T19:11:58.611Z,14.80
2022-09-10T19:14:29.992Z,14.80
2022-09-10T19:16:59.465Z,14.80
2022-09-10T19:19:30.432Z,14.80
2022-09-10T19:22:01.323Z,14.80
2022-09-10T19:24:51.010Z,14.70
2022-09-10T19:27:15.604Z,14.70
2022-09-10T19:29:43.196Z,14.70
2022-09-10T19:32:11.443Z,14.70
2022-09-10T19:34:39.123Z,14.70
2022-09-10T19:37:07.250Z,14.60
2022-09-10T19:39:34.355Z,14.70
2022-09-10T19:42:01.399Z,14.70
2022-09-10T19:44:28.479Z,14.70
2022-09-10T19:46:55.487Z,14.60
2022-09-10T19:49:24.068Z,14.60
2022-09-10T19:51:51.108Z,14.60
2022-09-10T19:54:18.098Z,14.60
2022-09-10T19:56:46.163Z,14.60
2022-09-10T19:59:14.582Z,14.60
2022-09-10T20:01:43.779Z,14.60
2022-09-10T20:04:12.777Z,14.50
2022-09-10T20:06:42.550Z,14.50
2022-09-10T20:09:10.296Z,14.50
2022-09-10T20:11:38.378Z,14.50
2022-09-10T20:14:08.051Z,14.50
2022-09-10T20:16:40.203Z,14.50
2022-09-10T20:19:07.862Z,14.50
2022-09-10T20:21:37.090Z,14.50
2022-09-10T20:24:07.485Z,14.60
2022-09-10T20:26:43.797Z,14.60
2022-09-10T20:29:14.024Z,14.60
2022-09-10T20:31:43.296Z,14.60
2022-09-10T20:34:17.814Z,14.60
2022-09-10T20:36:45.217Z,14.50
2022-09-10T20:39:15.757Z,14.60
2022-09-10T20:41:43.966Z,14.50
2022-09-10T20:44:14.710Z,14.50
2022-09-10T20:46:42.911Z,14.50
2022-09-10T20:49:16.023Z,14.50
2022-09-10T20:51:44.308Z,14.50
2022-09-10T20:54:15.213Z,14.50
2022-09-10T20:56:43.022Z,14.50
2022-09-10T20:59:13.262Z,14.50
2022-09-10T21:01:40.407Z,14.50
2022-09-10T21:04:07.888Z,14.50
2022-09-10T21:06:35.278Z,14.50
2022-09-10T21:09:03.953Z,14.50
2022-09-10T21:11:34.101Z,14.50
2022-09-10T21:14:04.708Z,14.50
2022-09-10T21:16:35.802Z,14.50
2022-09-10T21:19:13.015Z,14.50
2022-09-10T21:21:41.949Z,14.50
2022-09-10T21:24:17.686Z,14.50
2022-09-10T21:26:45.086Z,14.50
2022-09-10T21:29:18.088Z,14.60
2022-09-10T21:31:46.067Z,14.50
2022-09-10T21:34:14.462Z,14.60
2022-09-10T21:36:43.615Z,14.60
2022-09-10T21:39:17.252Z,14.60
2022-09-10T21:41:47.646Z,14.60
2022-09-10T21:44:21.127Z,14.60
2022-09-10T21:46:49.724Z,14.60
2022-09-10T21:49:17.695Z,14.60
2022-09-10T21:51:45.221Z,14.60
2022-09-10T21:54:17.137Z,14.60
2022-09-10T21:56:44.855Z,14.50
2022-09-10T21:59:12.804Z,14.50
2022-09-10T22:01:43.838Z,14.50
2022-09-10T22:04:12.346Z,14.50
2022-09-10T22:06:39.656Z,14.50
2022-09-10T22:09:10.804Z,14.50
2022-09-10T22:11:45.888Z,14.50
2022-09-10T22:14:16.715Z,14.60
2022-09-10T22:16:45.600Z,14.50
2022-09-10T22:19:18.130Z,14.40
2022-09-10T22:21:45.971Z,14.50
2022-09-10T22:24:14.800Z,14.50
2022-09-10T22:26:44.482Z,14.50
2022-09-10T22:29:12.749Z,14.40
2022-09-10T22:31:40.041Z,14.50
2022-09-10T22:34:16.246Z,14.40
2022-09-10T22:36:45.607Z,14.40
2022-09-10T22:39:24.551Z,14.40
2022-09-10T22:41:52.029Z,14.40
2022-09-10T22:44:20.217Z,14.30
2022-09-10T22:46:47.766Z,14.30
2022-09-10T22:49:18.244Z,14.30
2022-09-10T22:51:45.888Z,14.30
2022-09-10T22:54:13.503Z,14.30
2022-09-10T22:56:40.666Z,14.20
2022-09-10T22:59:14.807Z,14.30
2022-09-10T23:01:43.549Z,14.30
2022-09-10T23:04:11.666Z,14.30
2022-09-10T23:06:39.585Z,14.30
2022-09-10T23:09:16.494Z,14.20
2022-09-10T23:11:44.829Z,14.20
2022-09-10T23:14:19.959Z,14.30
2022-09-10T23:16:51.000Z,14.30
2022-09-10T23:19:21.935Z,14.20
2022-09-10T23:21:52.694Z,14.20
2022-09-10T23:24:24.270Z,14.30
2022-09-10T23:26:51.690Z,14.20
2022-09-10T23:29:18.873Z,14.20
2022-09-10T23:31:47.012Z,14.20
2022-09-10T23:34:18.158Z,14.20
2022-09-10T23:36:48.175Z,14.20
2022-09-10T23:39:21.508Z,14.20
2022-09-10T23:41:54.619Z,14.30
2022-09-10T23:44:22.446Z,14.30
2022-09-10T23:46:49.989Z,14.20
2022-09-10T23:49:17.683Z,14.20
2022-09-10T23:51:44.980Z,14.20
2022-09-10T23:54:12.208Z,14.20
2022-09-10T23:56:40.211Z,14.20
2022-09-10T23:59:08.223Z,14.20
